sensor_id;sensor_type;location;lat;lon;timestamp;pressure;altitude;pressure_sealevel;temperature;humidity
71915;BME280;60387;49.994;14.660;2024-01-15T00:02:12;96087.25;;;4.03;52.63
71915;BME280;60387;49.994;14.660;2024-01-15T00:04:45;96067.19;;;4.00;52.71
71915;BME280;60387;49.994;14.660;2024-01-15T00:07:18;96077.03;;;4.05;52.69
71915;BME280;60387;49.994;14.660;2024-01-15T00:09:52;96066.34;;;4.05;52.67
71915;BME280;60387;49.994;14.660;2024-01-15T00:12:25;96062.84;;;4.04;52.70
71915;BME280;60387;49.994;14.660;2024-01-15T00:14:58;96056.69;;;4.04;53.00
71915;BME280;60387;49.994;14.660;2024-01-15T00:17:32;96037.72;;;4.00;53.09
71915;BME280;60387;49.994;14.660;2024-01-15T00:20:06;96026.84;;;3.97;52.88
71915;BME280;60387;49.994;14.660;2024-01-15T00:22:39;96037.84;;;3.95;52.70
71915;BME280;60387;49.994;14.660;2024-01-15T00:25:12;96032.50;;;3.95;52.75
71915;BME280;60387;49.994;14.660;2024-01-15T00:27:46;96023.66;;;3.95;52.69
71915;BME280;60387;49.994;14.660;2024-01-15T00:30:19;96029.53;;;3.97;52.76
71915;BME280;60387;49.994;14.660;2024-01-15T00:32:52;96019.09;;;3.95;52.67
71915;BME280;60387;49.994;14.660;2024-01-15T00:35:25;96012.94;;;3.95;52.83
71915;BME280;60387;49.994;14.660;2024-01-15T00:37:59;96007.91;;;3.93;52.80
71915;BME280;60387;49.994;14.660;2024-01-15T00:40:32;96012.75;;;3.91;52.83
71915;BME280;60387;49.994;14.660;2024-01-15T00:43:05;96007.31;;;3.83;52.76
71915;BME280;60387;49.994;14.660;2024-01-15T00:45:38;96017.13;;;3.87;52.81
71915;BME280;60387;49.994;14.660;2024-01-15T00:48:12;96025.47;;;3.86;52.37
71915;BME280;60387;49.994;14.660;2024-01-15T00:50:45;96011.09;;;3.82;52.98
71915;BME280;60387;49.994;14.660;2024-01-15T00:53:18;96011.69;;;3.79;52.82
71915;BME280;60387;49.994;14.660;2024-01-15T00:55:51;96009.59;;;3.76;52.85
71915;BME280;60387;49.994;14.660;2024-01-15T00:58:26;96010.72;;;3.75;52.66
71915;BME280;60387;49.994;14.660;2024-01-15T01:00:59;95999.03;;;3.71;53.00
71915;BME280;60387;49.994;14.660;2024-01-15T01:03:32;95998.22;;;3.70;52.92
71915;BME280;60387;49.994;14.660;2024-01-15T01:06:05;95986.69;;;3.70;52.82
71915;BME280;60387;49.994;14.660;2024-01-15T01:08:39;95994.72;;;3.70;52.97
71915;BME280;60387;49.994;14.660;2024-01-15T01:11:13;95983.25;;;3.69;52.98
71915;BME280;60387;49.994;14.660;2024-01-15T01:13:46;95972.84;;;3.68;52.77
71915;BME280;60387;49.994;14.660;2024-01-15T01:16:20;95972.34;;;3.66;52.66
71915;BME280;60387;49.994;14.660;2024-01-15T01:18:53;95994.25;;;3.68;53.02
71915;BME280;60387;49.994;14.660;2024-01-15T01:21:26;95998.81;;;3.67;52.52
71915;BME280;60387;49.994;14.660;2024-01-15T01:23:59;95992.66;;;3.67;52.64
71915;BME280;60387;49.994;14.660;2024-01-15T01:26:33;95994.56;;;3.66;52.95
71915;BME280;60387;49.994;14.660;2024-01-15T01:29:06;95988.91;;;3.68;52.68
71915;BME280;60387;49.994;14.660;2024-01-15T01:31:45;95973.44;;;3.65;52.64
71915;BME280;60387;49.994;14.660;2024-01-15T01:34:19;95983.06;;;3.66;52.70
71915;BME280;60387;49.994;14.660;2024-01-15T01:36:52;95981.47;;;3.65;52.58
71915;BME280;60387;49.994;14.660;2024-01-15T01:39:25;95981.97;;;3.67;52.47
71915;BME280;60387;49.994;14.660;2024-01-15T01:41:58;95980.38;;;3.66;52.45
71915;BME280;60387;49.994;14.660;2024-01-15T01:44:32;95982.56;;;3.64;52.87
71915;BME280;60387;49.994;14.660;2024-01-15T01:47:05;95975.63;;;3.63;52.98
71915;BME280;60387;49.994;14.660;2024-01-15T01:49:39;95975.03;;;3.66;52.72
71915;BME280;60387;49.994;14.660;2024-01-15T01:52:13;95970.28;;;3.63;52.82
71915;BME280;60387;49.994;14.660;2024-01-15T01:54:47;95962.72;;;3.65;52.60
71915;BME280;60387;49.994;14.660;2024-01-15T01:57:20;95957.19;;;3.61;52.42
71915;BME280;60387;49.994;14.660;2024-01-15T01:59:54;95954.03;;;3.59;52.80
71915;BME280;60387;49.994;14.660;2024-01-15T02:02:27;95954.78;;;3.60;52.67
71915;BME280;60387;49.994;14.660;2024-01-15T02:05:03;95946.28;;;3.58;52.71
71915;BME280;60387;49.994;14.660;2024-01-15T02:07:38;95940.94;;;3.58;51.90
71915;BME280;60387;49.994;14.660;2024-01-15T02:10:11;95941.53;;;3.55;52.55
71915;BME280;60387;49.994;14.660;2024-01-15T02:12:44;95947.09;;;3.58;52.59
71915;BME280;60387;49.994;14.660;2024-01-15T02:15:18;95936.88;;;3.60;52.45
71915;BME280;60387;49.994;14.660;2024-01-15T02:18:02;95932.41;;;3.56;52.71
71915;BME280;60387;49.994;14.660;2024-01-15T02:20:36;95950.06;;;3.57;52.68
71915;BME280;60387;49.994;14.660;2024-01-15T02:23:15;95947.09;;;3.58;52.61
71915;BME280;60387;49.994;14.660;2024-01-15T02:25:48;95953.69;;;3.61;52.57
71915;BME280;60387;49.994;14.660;2024-01-15T02:28:22;95952.59;;;3.62;52.25
71915;BME280;60387;49.994;14.660;2024-01-15T02:30:55;95961.72;;;3.61;52.50
71915;BME280;60387;49.994;14.660;2024-01-15T02:33:28;95976.53;;;3.58;52.23
71915;BME280;60387;49.994;14.660;2024-01-15T02:36:02;95971.19;;;3.58;52.36
71915;BME280;60387;49.994;14.660;2024-01-15T02:38:35;95969.88;;;3.56;52.50
71915;BME280;60387;49.994;14.660;2024-01-15T02:41:08;95964.22;;;3.57;52.52
71915;BME280;60387;49.994;14.660;2024-01-15T02:43:41;95948.47;;;3.56;52.38
71915;BME280;60387;49.994;14.660;2024-01-15T02:46:15;95941.03;;;3.53;52.27
71915;BME280;60387;49.994;14.660;2024-01-15T02:48:48;95939.16;;;3.53;52.12
71915;BME280;60387;49.994;14.660;2024-01-15T02:51:21;95932.50;;;3.51;52.42
71915;BME280;60387;49.994;14.660;2024-01-15T02:53:54;95929.84;;;3.51;52.09
71915;BME280;60387;49.994;14.660;2024-01-15T02:56:28;95938.34;;;3.53;52.24
71915;BME280;60387;49.994;14.660;2024-01-15T02:59:01;95922.00;;;3.54;52.15
71915;BME280;60387;49.994;14.660;2024-01-15T03:01:34;95932.22;;;3.52;51.87
71915;BME280;60387;49.994;14.660;2024-01-15T03:04:08;95942.63;;;3.54;52.06
71915;BME280;60387;49.994;14.660;2024-01-15T03:06:41;95954.41;;;3.53;51.86
71915;BME280;60387;49.994;14.660;2024-01-15T03:09:14;95938.34;;;3.53;51.62
71915;BME280;60387;49.994;14.660;2024-01-15T03:11:47;95940.34;;;3.47;51.65
71915;BME280;60387;49.994;14.660;2024-01-15T03:14:21;95933.59;;;3.50;51.79
71915;BME280;60387;49.994;14.660;2024-01-15T03:16:54;95920.16;;;3.41;51.60
71915;BME280;60387;49.994;14.660;2024-01-15T03:19:27;95925.66;;;3.45;51.86
71915;BME280;60387;49.994;14.660;2024-01-15T03:22:00;95903.91;;;3.38;52.15
71915;BME280;60387;49.994;14.660;2024-01-15T03:24:34;95914.00;;;3.41;52.20
71915;BME280;60387;49.994;14.660;2024-01-15T03:27:07;95915.28;;;3.43;52.14
71915;BME280;60387;49.994;14.660;2024-01-15T03:29:41;95914.28;;;3.39;51.88
71915;BME280;60387;49.994;14.660;2024-01-15T03:32:14;95901.72;;;3.40;51.87
71915;BME280;60387;49.994;14.660;2024-01-15T03:34:47;95897.75;;;3.37;51.53
71915;BME280;60387;49.994;14.660;2024-01-15T03:37:21;95885.47;;;3.23;51.94
71915;BME280;60387;49.994;14.660;2024-01-15T03:39:57;95884.28;;;3.29;52.14
71915;BME280;60387;49.994;14.660;2024-01-15T03:42:30;95871.63;;;3.21;51.72
71915;BME280;60387;49.994;14.660;2024-01-15T03:45:04;95879.84;;;3.24;52.07
71915;BME280;60387;49.994;14.660;2024-01-15T03:47:37;95876.16;;;3.20;51.84
71915;BME280;60387;49.994;14.660;2024-01-15T03:50:10;95861.50;;;3.18;51.65
71915;BME280;60387;49.994;14.660;2024-01-15T03:52:43;95874.38;;;3.16;51.77
71915;BME280;60387;49.994;14.660;2024-01-15T03:55:17;95870.41;;;3.13;51.67
71915;BME280;60387;49.994;14.660;2024-01-15T03:57:50;95871.50;;;3.12;52.21
71915;BME280;60387;49.994;14.660;2024-01-15T04:00:23;95894.19;;;3.15;51.91
71915;BME280;60387;49.994;14.660;2024-01-15T04:02:57;95897.47;;;3.12;51.94
71915;BME280;60387;49.994;14.660;2024-01-15T04:05:30;95900.34;;;3.15;51.82
71915;BME280;60387;49.994;14.660;2024-01-15T04:08:03;95904.91;;;3.15;51.77
71915;BME280;60387;49.994;14.660;2024-01-15T04:10:37;95917.19;;;3.16;52.19
71915;BME280;60387;49.994;14.660;2024-01-15T04:13:10;95934.81;;;3.17;52.22
71915;BME280;60387;49.994;14.660;2024-01-15T04:15:43;95932.13;;;3.17;52.09
71915;BME280;60387;49.994;14.660;2024-01-15T04:18:16;95921.94;;;3.19;51.90
71915;BME280;60387;49.994;14.660;2024-01-15T04:20:50;95921.25;;;3.13;51.89
71915;BME280;60387;49.994;14.660;2024-01-15T04:23:23;95914.91;;;3.09;52.02
71915;BME280;60387;49.994;14.660;2024-01-15T04:25:56;95922.13;;;3.09;52.14
71915;BME280;60387;49.994;14.660;2024-01-15T04:28:30;95932.25;;;3.12;52.21
71915;BME280;60387;49.994;14.660;2024-01-15T04:31:03;95927.19;;;3.10;52.03
71915;BME280;60387;49.994;14.660;2024-01-15T04:33:36;95931.03;;;3.04;51.73
71915;BME280;60387;49.994;14.660;2024-01-15T04:36:10;95931.25;;;3.08;52.13
71915;BME280;60387;49.994;14.660;2024-01-15T04:38:43;95936.19;;;3.01;51.91
71915;BME280;60387;49.994;14.660;2024-01-15T04:41:16;95937.00;;;3.02;52.24
71915;BME280;60387;49.994;14.660;2024-01-15T04:43:49;95920.25;;;2.96;52.22
71915;BME280;60387;49.994;14.660;2024-01-15T04:46:23;95920.34;;;2.91;52.62
71915;BME280;60387;49.994;14.660;2024-01-15T04:48:56;95909.16;;;2.89;52.61
71915;BME280;60387;49.994;14.660;2024-01-15T04:51:30;95899.44;;;2.93;52.14
71915;BME280;60387;49.994;14.660;2024-01-15T04:54:03;95887.28;;;2.87;52.66
71915;BME280;60387;49.994;14.660;2024-01-15T04:56:37;95894.09;;;2.80;52.58
71915;BME280;60387;49.994;14.660;2024-01-15T04:59:11;95901.63;;;2.78;52.59
71915;BME280;60387;49.994;14.660;2024-01-15T05:01:44;95898.97;;;2.78;52.76
71915;BME280;60387;49.994;14.660;2024-01-15T05:04:17;95907.25;;;2.76;52.32
71915;BME280;60387;49.994;14.660;2024-01-15T05:06:50;95920.75;;;2.71;52.48
71915;BME280;60387;49.994;14.660;2024-01-15T05:09:24;95922.31;;;2.72;52.59
71915;BME280;60387;49.994;14.660;2024-01-15T05:11:57;95918.06;;;2.71;52.87
71915;BME280;60387;49.994;14.660;2024-01-15T05:14:30;95916.56;;;2.65;52.71
71915;BME280;60387;49.994;14.660;2024-01-15T05:17:03;95911.22;;;2.65;52.59
71915;BME280;60387;49.994;14.660;2024-01-15T05:19:37;95922.50;;;2.62;52.62
71915;BME280;60387;49.994;14.660;2024-01-15T05:22:10;95933.28;;;2.57;53.03
71915;BME280;60387;49.994;14.660;2024-01-15T05:24:43;95934.84;;;2.58;52.90
71915;BME280;60387;49.994;14.660;2024-01-15T05:27:17;95945.53;;;2.58;52.75
71915;BME280;60387;49.994;14.660;2024-01-15T05:29:50;95940.00;;;2.55;53.23
71915;BME280;60387;49.994;14.660;2024-01-15T05:32:23;95943.19;;;2.57;53.02
71915;BME280;60387;49.994;14.660;2024-01-15T05:34:57;95939.00;;;2.51;52.93
71915;BME280;60387;49.994;14.660;2024-01-15T05:37:30;95942.44;;;2.51;52.87
71915;BME280;60387;49.994;14.660;2024-01-15T05:40:03;95938.78;;;2.47;53.08
71915;BME280;60387;49.994;14.660;2024-01-15T05:42:37;95952.16;;;2.47;53.09
71915;BME280;60387;49.994;14.660;2024-01-15T05:45:10;95952.75;;;2.44;52.90
71915;BME280;60387;49.994;14.660;2024-01-15T05:47:43;95951.53;;;2.37;53.24
71915;BME280;60387;49.994;14.660;2024-01-15T05:50:17;95973.03;;;2.45;52.85
71915;BME280;60387;49.994;14.660;2024-01-15T05:52:50;95961.84;;;2.43;53.04
71915;BME280;60387;49.994;14.660;2024-01-15T05:55:23;95968.78;;;2.44;53.03
71915;BME280;60387;49.994;14.660;2024-01-15T05:57:56;95959.97;;;2.44;53.16
71915;BME280;60387;49.994;14.660;2024-01-15T06:00:30;95970.56;;;2.49;52.95
71915;BME280;60387;49.994;14.660;2024-01-15T06:03:03;95972.03;;;2.41;53.17
71915;BME280;60387;49.994;14.660;2024-01-15T06:05:37;95952.34;;;2.37;53.14
71915;BME280;60387;49.994;14.660;2024-01-15T06:08:10;95965.50;;;2.47;53.40
71915;BME280;60387;49.994;14.660;2024-01-15T06:10:43;95959.97;;;2.44;53.40
71915;BME280;60387;49.994;14.660;2024-01-15T06:13:17;95963.44;;;2.44;53.16
71915;BME280;60387;49.994;14.660;2024-01-15T06:15:50;95959.19;;;2.43;53.33
71915;BME280;60387;49.994;14.660;2024-01-15T06:18:23;95949.28;;;2.44;53.26
71915;BME280;60387;49.994;14.660;2024-01-15T06:20:56;95959.19;;;2.43;53.38
71915;BME280;60387;49.994;14.660;2024-01-15T06:23:30;95941.38;;;2.39;53.30
71915;BME280;60387;49.994;14.660;2024-01-15T06:26:03;95937.06;;;2.38;53.09
71915;BME280;60387;49.994;14.660;2024-01-15T06:28:37;95929.94;;;2.33;53.41
71915;BME280;60387;49.994;14.660;2024-01-15T06:31:10;95944.38;;;2.32;53.11
71915;BME280;60387;49.994;14.660;2024-01-15T06:33:43;95940.41;;;2.30;53.19
71915;BME280;60387;49.994;14.660;2024-01-15T06:36:17;95930.13;;;2.23;53.55
71915;BME280;60387;49.994;14.660;2024-01-15T06:38:50;95944.34;;;2.19;53.32
71915;BME280;60387;49.994;14.660;2024-01-15T06:41:23;95955.91;;;2.14;53.76
71915;BME280;60387;49.994;14.660;2024-01-15T06:43:56;95958.84;;;2.13;54.21
71915;BME280;60387;49.994;14.660;2024-01-15T06:46:30;95955.47;;;2.07;54.14
71915;BME280;60387;49.994;14.660;2024-01-15T06:49:03;95947.78;;;2.06;54.15
71915;BME280;60387;49.994;14.660;2024-01-15T06:51:36;95942.72;;;2.04;54.21
71915;BME280;60387;49.994;14.660;2024-01-15T06:54:10;95956.66;;;2.01;53.98
71915;BME280;60387;49.994;14.660;2024-01-15T06:56:43;95975.34;;;2.01;53.76
71915;BME280;60387;49.994;14.660;2024-01-15T06:59:16;95968.97;;;1.97;54.04
71915;BME280;60387;49.994;14.660;2024-01-15T07:01:49;95978.56;;;1.98;53.56
71915;BME280;60387;49.994;14.660;2024-01-15T07:04:23;95961.13;;;1.87;54.28
71915;BME280;60387;49.994;14.660;2024-01-15T07:06:56;95977.13;;;1.87;54.11
71915;BME280;60387;49.994;14.660;2024-01-15T07:09:29;95987.88;;;1.82;54.58
71915;BME280;60387;49.994;14.660;2024-01-15T07:12:03;95983.63;;;1.81;54.80
71915;BME280;60387;49.994;14.660;2024-01-15T07:14:36;95987.88;;;1.82;54.69
71915;BME280;60387;49.994;14.660;2024-01-15T07:17:09;95980.22;;;1.76;54.66
71915;BME280;60387;49.994;14.660;2024-01-15T07:19:43;95984.69;;;1.80;54.93
71915;BME280;60387;49.994;14.660;2024-01-15T07:22:16;95994.81;;;1.83;54.49
71915;BME280;60387;49.994;14.660;2024-01-15T07:24:49;95987.88;;;1.82;54.57
71915;BME280;60387;49.994;14.660;2024-01-15T07:27:23;95997.19;;;1.85;54.85
71915;BME280;60387;49.994;14.660;2024-01-15T07:29:56;95993.22;;;1.82;54.62
71915;BME280;60387;49.994;14.660;2024-01-15T07:32:29;95994.59;;;1.80;55.13
71915;BME280;60387;49.994;14.660;2024-01-15T07:35:03;95989.25;;;1.80;55.11
71915;BME280;60387;49.994;14.660;2024-01-15T07:37:37;95996.19;;;1.81;55.30
71915;BME280;60387;49.994;14.660;2024-01-15T07:40:10;96001.75;;;1.84;55.35
71915;BME280;60387;49.994;14.660;2024-01-15T07:42:44;96009.66;;;1.89;55.15
71915;BME280;60387;49.994;14.660;2024-01-15T07:45:17;96001.38;;;1.91;54.81
71915;BME280;60387;49.994;14.660;2024-01-15T07:47:50;96002.16;;;1.91;54.80
71915;BME280;60387;49.994;14.660;2024-01-15T07:50:24;96003.41;;;1.99;55.05
71915;BME280;60387;49.994;14.660;2024-01-15T07:52:57;96002.31;;;2.00;54.29
71915;BME280;60387;49.994;14.660;2024-01-15T07:55:30;96000.66;;;2.04;54.56
71915;BME280;60387;49.994;14.660;2024-01-15T07:58:04;96006.50;;;2.06;54.59
71915;BME280;60387;49.994;14.660;2024-01-15T08:00:37;96012.94;;;2.05;55.01
71915;BME280;60387;49.994;14.660;2024-01-15T08:03:11;96010.97;;;2.10;54.59
71915;BME280;60387;49.994;14.660;2024-01-15T08:05:44;96008.81;;;2.12;54.48
71915;BME280;60387;49.994;14.660;2024-01-15T08:08:18;96006.03;;;2.17;54.67
71915;BME280;60387;49.994;14.660;2024-01-15T08:10:54;95998.56;;;2.19;54.10
71915;BME280;60387;49.994;14.660;2024-01-15T08:13:30;96019.78;;;2.29;54.06
71915;BME280;60387;49.994;14.660;2024-01-15T08:16:04;96007.13;;;2.35;54.00
71915;BME280;60387;49.994;14.660;2024-01-15T08:18:37;96004.66;;;2.38;53.99
71915;BME280;60387;49.994;14.660;2024-01-15T08:21:11;96015.56;;;2.42;53.88
71915;BME280;60387;49.994;14.660;2024-01-15T08:23:44;96009.84;;;2.48;53.67
71915;BME280;60387;49.994;14.660;2024-01-15T08:26:17;96028.97;;;2.55;53.97
71915;BME280;60387;49.994;14.660;2024-01-15T08:28:51;96028.31;;;2.63;54.08
71915;BME280;60387;49.994;14.660;2024-01-15T08:31:24;96020.19;;;2.68;53.66
71915;BME280;60387;49.994;14.660;2024-01-15T08:33:58;96023.81;;;2.77;53.48
71915;BME280;60387;49.994;14.660;2024-01-15T08:36:31;96025.31;;;2.83;53.26
71915;BME280;60387;49.994;14.660;2024-01-15T08:39:04;96027.69;;;2.85;53.39
71915;BME280;60387;49.994;14.660;2024-01-15T08:41:38;96034.84;;;2.89;53.87
71915;BME280;60387;49.994;14.660;2024-01-15T08:44:11;96027.31;;;2.91;53.44
71915;BME280;60387;49.994;14.660;2024-01-15T08:46:44;96013.94;;;2.91;52.97
71915;BME280;60387;49.994;14.660;2024-01-15T08:49:17;95994.53;;;2.99;53.29
71915;BME280;60387;49.994;14.660;2024-01-15T08:51:51;95996.31;;;3.03;53.44
71915;BME280;60387;49.994;14.660;2024-01-15T08:54:24;95981.28;;;3.08;52.66
71915;BME280;60387;49.994;14.660;2024-01-15T08:56:57;95983.66;;;3.22;52.96
71915;BME280;60387;49.994;14.660;2024-01-15T08:59:30;95978.63;;;3.34;52.78
71915;BME280;60387;49.994;14.660;2024-01-15T09:02:04;95987.41;;;3.48;52.23
71915;BME280;60387;49.994;14.660;2024-01-15T09:04:38;95980.38;;;3.66;51.78
71915;BME280;60387;49.994;14.660;2024-01-15T09:07:11;95986.28;;;3.90;51.81
71915;BME280;60387;49.994;14.660;2024-01-15T09:09:44;95992.47;;;4.12;51.00
71915;BME280;60387;49.994;14.660;2024-01-15T09:12:17;95988.28;;;4.20;50.56
71915;BME280;60387;49.994;14.660;2024-01-15T09:14:51;95991.34;;;4.27;50.16
71915;BME280;60387;49.994;14.660;2024-01-15T09:17:24;95999.31;;;4.18;49.85
71915;BME280;60387;49.994;14.660;2024-01-15T09:19:57;96004.44;;;4.28;49.91
71915;BME280;60387;49.994;14.660;2024-01-15T09:22:31;96004.88;;;4.22;49.59
71915;BME280;60387;49.994;14.660;2024-01-15T09:25:05;96008.50;;;4.26;49.82
71915;BME280;60387;49.994;14.660;2024-01-15T09:27:38;96011.50;;;4.24;49.38
71915;BME280;60387;49.994;14.660;2024-01-15T09:30:12;96009.13;;;4.23;49.34
71915;BME280;60387;49.994;14.660;2024-01-15T09:32:45;96012.28;;;4.25;49.85
71915;BME280;60387;49.994;14.660;2024-01-15T09:35:18;96010.56;;;4.29;50.04
71915;BME280;60387;49.994;14.660;2024-01-15T09:37:51;96011.09;;;4.31;49.58
71915;BME280;60387;49.994;14.660;2024-01-15T09:40:29;96007.31;;;4.32;50.08
71915;BME280;60387;49.994;14.660;2024-01-15T09:43:04;96001.34;;;4.35;49.66
71915;BME280;60387;49.994;14.660;2024-01-15T09:45:37;96010.38;;;4.39;49.68
71915;BME280;60387;49.994;14.660;2024-01-15T09:48:11;95989.50;;;4.36;49.39
71915;BME280;60387;49.994;14.660;2024-01-15T09:50:45;95996.16;;;4.38;49.02
71915;BME280;60387;49.994;14.660;2024-01-15T09:53:18;95987.31;;;4.38;48.84
71915;BME280;60387;49.994;14.660;2024-01-15T09:55:52;95988.59;;;4.40;49.11
71915;BME280;60387;49.994;14.660;2024-01-15T09:58:26;95983.72;;;4.42;49.03
71915;BME280;60387;49.994;14.660;2024-01-15T10:00:59;95979.16;;;4.43;48.62
71915;BME280;60387;49.994;14.660;2024-01-15T10:03:34;95983.91;;;4.46;48.58
71915;BME280;60387;49.994;14.660;2024-01-15T10:06:08;95977.59;;;4.42;48.65
71915;BME280;60387;49.994;14.660;2024-01-15T10:08:43;95981.13;;;4.51;48.65
71915;BME280;60387;49.994;14.660;2024-01-15T10:11:20;95977.53;;;4.55;48.82
71915;BME280;60387;49.994;14.660;2024-01-15T10:13:54;95971.72;;;4.62;48.77
71915;BME280;60387;49.994;14.660;2024-01-15T10:16:27;95971.13;;;4.65;48.33
71915;BME280;60387;49.994;14.660;2024-01-15T10:19:01;95970.22;;;4.69;48.31
71915;BME280;60387;49.994;14.660;2024-01-15T10:21:35;95955.38;;;4.72;48.24
71915;BME280;60387;49.994;14.660;2024-01-15T10:24:08;95963.31;;;4.77;48.00
71915;BME280;60387;49.994;14.660;2024-01-15T10:26:42;95951.00;;;4.76;47.36
71915;BME280;60387;49.994;14.660;2024-01-15T10:29:15;95952.41;;;4.73;47.76
71915;BME280;60387;49.994;14.660;2024-01-15T10:31:48;95950.19;;;4.75;47.64
71915;BME280;60387;49.994;14.660;2024-01-15T10:34:21;95943.06;;;4.71;47.55
71915;BME280;60387;49.994;14.660;2024-01-15T10:36:55;95943.44;;;4.78;47.68
71915;BME280;60387;49.994;14.660;2024-01-15T10:39:29;95950.19;;;4.75;47.89
71915;BME280;60387;49.994;14.660;2024-01-15T10:42:03;95945.63;;;4.76;47.61
71915;BME280;60387;49.994;14.660;2024-01-15T10:44:36;95950.38;;;4.79;47.48
71915;BME280;60387;49.994;14.660;2024-01-15T10:47:10;95953.53;;;4.81;47.79
71915;BME280;60387;49.994;14.660;2024-01-15T10:49:47;95944.41;;;4.82;47.61
71915;BME280;60387;49.994;14.660;2024-01-15T10:52:21;95945.00;;;4.79;47.57
71915;BME280;60387;49.994;14.660;2024-01-15T10:54:54;95950.56;;;4.82;48.01
71915;BME280;60387;49.994;14.660;2024-01-15T10:57:28;95939.81;;;4.82;47.63
71915;BME280;60387;49.994;14.660;2024-01-15T11:00:05;95950.38;;;4.79;47.16
71915;BME280;60387;49.994;14.660;2024-01-15T11:02:39;95947.22;;;4.77;47.43
71915;BME280;60387;49.994;14.660;2024-01-15T11:05:12;95943.44;;;4.78;47.36
71915;BME280;60387;49.994;14.660;2024-01-15T11:07:46;95941.22;;;4.80;47.42
71915;BME280;60387;49.994;14.660;2024-01-15T11:10:55;95948.34;;;4.84;47.42
71915;BME280;60387;49.994;14.660;2024-01-15T11:16:06;95943.16;;;4.88;47.83
71915;BME280;60387;49.994;14.660;2024-01-15T11:19:01;95940.00;;;4.86;47.37
71915;BME280;60387;49.994;14.660;2024-01-15T11:21:41;95938.91;;;4.87;47.55
71915;BME280;60387;49.994;14.660;2024-01-15T11:27:08;95946.19;;;4.86;47.79
71915;BME280;60387;49.994;14.660;2024-01-15T11:29:41;95948.72;;;4.91;47.49
71915;BME280;60387;49.994;14.660;2024-01-15T11:32:14;95917.91;;;4.89;47.78
71915;BME280;60387;49.994;14.660;2024-01-15T11:34:58;95933.72;;;4.90;47.61
71915;BME280;60387;49.994;14.660;2024-01-15T11:43:06;95922.69;;;4.92;47.07
71915;BME280;60387;49.994;14.660;2024-01-15T11:45:39;95933.41;;;4.92;47.71
71915;BME280;60387;49.994;14.660;2024-01-15T11:48:16;95931.22;;;4.94;47.47
71915;BME280;60387;49.994;14.660;2024-01-15T11:50:50;95911.81;;;4.97;47.55
71915;BME280;60387;49.994;14.660;2024-01-15T11:56:15;95909.28;;;5.00;47.33
71915;BME280;60387;49.994;14.660;2024-01-15T11:58:49;95908.53;;;5.00;46.82
71915;BME280;60387;49.994;14.660;2024-01-15T12:01:22;95908.66;;;4.95;47.03
71915;BME280;60387;49.994;14.660;2024-01-15T12:03:55;95907.69;;;4.91;47.16
71915;BME280;60387;49.994;14.660;2024-01-15T12:06:29;95895.03;;;4.83;47.57
71915;BME280;60387;49.994;14.660;2024-01-15T12:09:08;95904.03;;;4.87;47.23
71915;BME280;60387;49.994;14.660;2024-01-15T12:11:46;95900.88;;;4.85;46.96
71915;BME280;60387;49.994;14.660;2024-01-15T12:14:24;95910.19;;;4.87;47.46
71915;BME280;60387;49.994;14.660;2024-01-15T12:16:57;95906.59;;;4.92;47.65
71915;BME280;60387;49.994;14.660;2024-01-15T12:19:30;95899.81;;;4.94;47.12
71915;BME280;60387;49.994;14.660;2024-01-15T12:22:04;95902.19;;;4.96;47.31
71915;BME280;60387;49.994;14.660;2024-01-15T12:24:37;95895.41;;;4.98;47.36
71915;BME280;60387;49.994;14.660;2024-01-15T12:27:11;95898.38;;;4.97;47.27
71915;BME280;60387;49.994;14.660;2024-01-15T12:29:44;95891.16;;;4.97;47.54
71915;BME280;60387;49.994;14.660;2024-01-15T12:32:18;95878.38;;;4.94;47.40
71915;BME280;60387;49.994;14.660;2024-01-15T12:34:52;95878.50;;;4.89;46.95
71915;BME280;60387;49.994;14.660;2024-01-15T12:37:25;95886.09;;;4.96;47.04
71915;BME280;60387;49.994;14.660;2024-01-15T12:39:59;95884.16;;;4.88;46.76
71915;BME280;60387;49.994;14.660;2024-01-15T12:42:41;95892.59;;;5.03;47.24
71915;BME280;60387;49.994;14.660;2024-01-15T12:45:15;95881.91;;;5.20;47.26
71915;BME280;60387;49.994;14.660;2024-01-15T12:47:48;95877.84;;;5.40;47.39
71915;BME280;60387;49.994;14.660;2024-01-15T12:50:24;95876.28;;;5.56;46.82
71915;BME280;60387;49.994;14.660;2024-01-15T12:52:57;95886.91;;;5.69;46.86
71915;BME280;60387;49.994;14.660;2024-01-15T12:55:31;95888.81;;;5.77;46.36
71915;BME280;60387;49.994;14.660;2024-01-15T12:58:04;95886.31;;;5.81;45.89
71915;BME280;60387;49.994;14.660;2024-01-15T13:00:37;95897.53;;;5.83;45.42
71915;BME280;60387;49.994;14.660;2024-01-15T13:03:10;95900.06;;;5.88;45.84
71915;BME280;60387;49.994;14.660;2024-01-15T13:05:44;95896.56;;;5.87;46.13
71915;BME280;60387;49.994;14.660;2024-01-15T13:08:17;95890.91;;;5.89;45.60
71915;BME280;60387;49.994;14.660;2024-01-15T13:10:50;95896.56;;;5.87;45.56
71915;BME280;60387;49.994;14.660;2024-01-15T13:13:23;95877.47;;;5.80;45.38
71915;BME280;60387;49.994;14.660;2024-01-15T13:15:57;95887.88;;;5.82;45.66
71915;BME280;60387;49.994;14.660;2024-01-15T13:18:30;95892.28;;;5.78;45.54
71915;BME280;60387;49.994;14.660;2024-01-15T13:21:03;95888.03;;;5.77;45.37
71915;BME280;60387;49.994;14.660;2024-01-15T13:23:36;95894.16;;;5.77;45.67
71915;BME280;60387;49.994;14.660;2024-01-15T13:26:10;95886.91;;;5.78;44.98
71915;BME280;60387;49.994;14.660;2024-01-15T13:28:43;95892.59;;;5.76;45.45
71915;BME280;60387;49.994;14.660;2024-01-15T13:31:17;95892.91;;;5.75;45.50
71915;BME280;60387;49.994;14.660;2024-01-15T13:33:50;95886.56;;;5.62;44.71
71915;BME280;60387;49.994;14.660;2024-01-15T13:36:24;95891.63;;;5.55;44.66
71915;BME280;60387;49.994;14.660;2024-01-15T13:38:57;95898.56;;;5.48;44.27
71915;BME280;60387;49.994;14.660;2024-01-15T13:41:31;95898.22;;;5.41;45.09
71915;BME280;60387;49.994;14.660;2024-01-15T13:44:04;95903.59;;;5.41;44.43
71915;BME280;60387;49.994;14.660;2024-01-15T13:46:37;95910.56;;;5.42;45.29
71915;BME280;60387;49.994;14.660;2024-01-15T13:49:10;95907.38;;;5.40;44.80